Kakamas, South Africa
Current Conditions -  °F | °C
As of 1:00 AM on Sunday 21 Dec 2014 (Local Time) from FAUP Reporting Station
Clear Clear  
Wind Chill: 72°   Ceiling: Unl
Heat Index: 72°   Visibility: 6mi
Dew Point: 23°   Wind: 3mph
Humidity: 16%   Direction: 200°SSW
Pressure: 29.94"   Gusts: NA
Location:  28.77°S, 20.61°E
Report Text: FAUP 202300Z 20003KT CAVOK 22/M05 Q1014 NOSIG
Loading
Personal Weather Stations






























Interactive Weather Map New forecast layout! Learn more

10-Day Weather Forecast

Advertisements
Track Severe Weather on mobile